Flight Track Log - Related Links

Times and Time Zones

All times are in EST time to prevent confusion due to time zone crossing. See the SKW7363 flight status page for this flight to view local times or setup timezone preferences in your user account.

Time Position Orientation Groundspeed Altitude Reporting Facility
EST Latitude Longitude Course Direction KTS MPH feet Rate Location/Type
Wed 06:59:49 PM 40.8061 -111.9994 300° West 167 192 4,700  Level Salt Lake Center
Wed 07:01:02 PM 40.8381 -112.0736 300° West 218 251 6,200 1,291 Climbing Salt Lake Center
Wed 07:01:08 PM 40.8397 -112.0781 296° West 205 236 6,400 1,527 Climbing Salt Lake Center
Wed 07:01:57 PM 40.8575 -112.1406 291° West 217 250 7,600 1,377 Climbing Salt Lake Center
Wed 07:02:09 PM 40.8597 -112.1528 284° West 214 246 7,800 1,377 Climbing Salt Lake Center
Wed 07:02:58 PM 40.8761 -112.2139 290° West 213 245 9,000 1,355 Climbing Salt Lake Center
Wed 07:03:11 PM 40.8803 -112.2267 293° West 214 246 9,200 1,459 Climbing Salt Lake Center
Wed 07:04:12 PM 40.9242 -112.2750 320° Northwest 199 229 10,800 1,463 Climbing Salt Lake Center
Wed 07:05:14 PM 40.9681 -112.3269 318° Northwest 209 241 12,200 1,306 Climbing Salt Lake Center
Wed 07:06:16 PM 41.0108 -112.3792 317° Northwest 210 242 13,500 878 Climbing Salt Lake Center
Wed 07:07:17 PM 41.0558 -112.4364 316° Northwest 226 260 14,000 244 Climbing Salt Lake Center
Wed 07:08:19 PM 41.1056 -112.5017 315° West 249 287 14,000  Level Salt Lake Center
Wed 07:09:20 PM 41.1592 -112.5703 316° Northwest 265 305 14,000 488 Level Salt Lake Center
Wed 07:10:22 PM 41.2228 -112.6486 317° Northwest 259 298 15,000 919 Climbing Salt Lake Center
Wed 07:11:24 PM 41.2722 -112.7106 317° Northwest 246 283 15,900 780 Climbing Salt Lake Center
Wed 07:12:25 PM 41.3194 -112.7722 316° Northwest 239 275 16,600 537 Climbing Salt Lake Center
Wed 07:13:27 PM 41.3675 -112.8344 316° Northwest 240 276 17,000 390 Climbing Salt Lake Center
Wed 07:14:28 PM 41.4153 -112.8964 316° Northwest 240 276 17,400 390 Climbing Salt Lake Center
Wed 07:15:30 PM 41.4633 -112.9583 316° Northwest 241 277 17,800 195 Climbing Salt Lake Center
Wed 07:16:31 PM 41.5111 -113.0211 315° West 241 277 17,800 98 Level Salt Lake Center
Wed 07:17:33 PM 41.5600 -113.0808 318° Northwest 240 276 18,000 97 Climbing Salt Lake Center
Wed 07:18:35 PM 41.6214 -113.1569 317° Northwest 244 281 18,000  Level Salt Lake Center
Wed 07:19:36 PM 41.6719 -113.2264 314° West 252 290 18,000  Level Salt Lake Center
Wed 07:20:38 PM 41.7114 -113.3064 303° West 257 296 18,000  Level Salt Lake Center
Wed 07:21:39 PM 41.7581 -113.3758 312° West 253 291 18,000  Level Salt Lake Center
Wed 07:22:41 PM 41.8097 -113.4414 317° Northwest 255 293 18,000  Level Salt Lake Center
Wed 07:23:43 PM 41.8578 -113.5103 313° West 254 292 18,000  Level Salt Lake Center
Wed 07:24:44 PM 41.9028 -113.5753 313° West 242 278 18,000 -634 Level Salt Lake Center
Wed 07:25:46 PM 41.9472 -113.6444 311° West 243 280 16,700 -1,366 Descending Salt Lake Center
Wed 07:26:47 PM 42.0036 -113.7392 309° West 268 308 15,200 -1,171 Descending Salt Lake Center
Wed 07:27:49 PM 42.0531 -113.8167 311° West 273 314 14,300 -919 Descending Salt Lake Center
Wed 07:28:51 PM 42.1017 -113.8867 313° West 261 300 13,300 -683 Descending Salt Lake Center
Wed 07:29:52 PM 42.1497 -113.9619 311° West 265 305 12,900 -488 Descending Salt Lake Center
Wed 07:30:54 PM 42.1967 -114.0367 310° West 262 302 12,300 -634 Descending Salt Lake Center
Wed 07:31:55 PM 42.2508 -114.1217 311° West 263 303 11,600 -927 Descending Salt Lake Center
Wed 07:32:57 PM 42.3011 -114.2006 311° West 269 310 10,400 -1,161 Descending Salt Lake Center

Login

Don't have an account? Register now (free) for customized features, flight alerts, and more!